createdAt,value
2022-08-05T00:00:16.599Z,25.40
2022-08-05T00:02:51.070Z,25.28
2022-08-05T00:06:02.890Z,25.24
2022-08-05T00:08:30.834Z,25.21
2022-08-05T00:11:01.231Z,25.19
2022-08-05T00:13:39.407Z,25.24
2022-08-05T00:16:09.476Z,25.12
2022-08-05T00:18:38.297Z,25.08
2022-08-05T00:21:06.748Z,25.08
2022-08-05T00:23:46.470Z,25.03
2022-08-05T00:26:21.034Z,25.01
2022-08-05T00:28:49.433Z,25.00
2022-08-05T00:31:16.320Z,25.00
2022-08-05T00:34:55.263Z,25.01
2022-08-05T00:37:12.726Z,24.96
2022-08-05T00:39:16.100Z,24.93
2022-08-05T00:41:55.191Z,24.96
2022-08-05T00:44:30.354Z,25.06
2022-08-05T00:47:03.843Z,25.10
2022-08-05T00:49:32.601Z,25.10
2022-08-05T00:51:59.832Z,25.09
2022-08-05T00:54:28.196Z,25.05
2022-08-05T00:56:56.984Z,25.05
2022-08-05T00:59:23.736Z,25.10
2022-08-05T01:01:50.939Z,25.19
2022-08-05T01:04:20.155Z,25.24
2022-08-05T01:06:53.635Z,25.36
2022-08-05T01:09:22.082Z,25.41
2022-08-05T01:11:52.184Z,25.42
2022-08-05T01:14:46.812Z,25.42
2022-08-05T01:17:22.778Z,25.35
2022-08-05T01:20:01.964Z,25.29
2022-08-05T01:22:51.387Z,25.15
2022-08-05T01:25:41.079Z,24.93
2022-08-05T01:28:35.600Z,24.74
2022-08-05T01:31:27.744Z,24.67
2022-08-05T01:34:08.449Z,24.71
2022-08-05T01:36:46.985Z,24.74
2022-08-05T01:39:36.069Z,24.79
2022-08-05T01:42:06.718Z,24.85
2022-08-05T01:44:37.493Z,24.94
2022-08-05T01:47:05.120Z,24.92
2022-08-05T01:50:01.960Z,24.92
2022-08-05T01:52:21.225Z,24.86
2022-08-05T01:54:56.882Z,24.79
2022-08-05T01:58:12.658Z,24.73
2022-08-05T02:00:30.595Z,24.76
2022-08-05T02:03:24.601Z,24.86
2022-08-05T02:05:59.971Z,24.89
2022-08-05T02:08:31.130Z,24.94
2022-08-05T02:11:15.858Z,24.92
2022-08-05T02:14:17.413Z,24.79
2022-08-05T02:16:53.093Z,24.75
2022-08-05T02:19:35.157Z,24.73
2022-08-05T02:22:05.375Z,24.51
2022-08-05T02:24:38.290Z,24.45
2022-08-05T02:27:09.121Z,24.44
2022-08-05T02:29:59.735Z,24.30
2022-08-05T02:32:30.908Z,24.24
2022-08-05T02:35:13.570Z,24.21
2022-08-05T02:37:47.622Z,24.12
2022-08-05T02:40:21.362Z,24.03
2022-08-05T02:42:53.049Z,24.07
2022-08-05T02:45:24.205Z,24.10
2022-08-05T02:48:11.410Z,24.09
2022-08-05T02:50:43.966Z,24.03
2022-08-05T02:53:16.150Z,23.99
2022-08-05T02:55:54.471Z,24.02
2022-08-05T02:58:27.282Z,24.00
2022-08-05T03:00:56.588Z,24.01
2022-08-05T03:06:53.761Z,24.02
2022-08-05T03:08:42.564Z,24.01
2022-08-05T03:11:56.910Z,24.03
2022-08-05T03:14:07.978Z,23.99
2022-08-05T03:16:35.630Z,23.96
2022-08-05T03:19:08.778Z,23.96
2022-08-05T03:21:41.680Z,23.85
2022-08-05T03:24:16.934Z,23.86
2022-08-05T03:26:43.476Z,23.90
2022-08-05T03:29:17.287Z,24.02
2022-08-05T03:31:57.072Z,24.16
2022-08-05T03:34:28.772Z,24.27
2022-08-05T03:36:55.369Z,24.36
2022-08-05T03:39:27.082Z,24.42
2022-08-05T03:41:56.262Z,24.52
2022-08-05T03:44:23.491Z,24.59
2022-08-05T03:46:50.276Z,24.65
2022-08-05T03:49:17.150Z,24.60
2022-08-05T03:52:48.882Z,24.60
2022-08-05T03:55:53.362Z,24.42
2022-08-05T03:57:42.330Z,24.36
2022-08-05T04:00:16.033Z,24.30
2022-08-05T04:02:58.188Z,24.20
2022-08-05T04:05:33.621Z,24.14
2022-08-05T04:08:29.772Z,24.22
2022-08-05T04:10:53.420Z,24.34
2022-08-05T04:13:21.667Z,24.52
2022-08-05T04:16:02.802Z,24.59
2022-08-05T04:18:32.186Z,24.63
2022-08-05T04:21:01.670Z,24.63
2022-08-05T04:24:04.980Z,24.59
2022-08-05T04:26:17.424Z,24.52
2022-08-05T04:28:50.844Z,24.46
2022-08-05T04:31:19.000Z,24.50
2022-08-05T04:34:17.569Z,24.56
2022-08-05T04:36:44.740Z,24.55
2022-08-05T04:39:15.919Z,24.35
2022-08-05T04:41:42.509Z,24.36
2022-08-05T04:44:10.733Z,24.33
2022-08-05T04:46:38.487Z,24.36
2022-08-05T04:49:12.309Z,24.51
2022-08-05T04:51:41.436Z,24.66
2022-08-05T04:54:09.206Z,24.82
2022-08-05T04:56:37.199Z,24.96
2022-08-05T04:59:22.255Z,25.12
2022-08-05T05:02:07.570Z,25.26
2022-08-05T05:04:44.044Z,25.79
2022-08-05T05:07:15.902Z,26.45
2022-08-05T05:09:44.429Z,27.00
2022-08-05T05:12:11.512Z,27.41
2022-08-05T05:14:38.352Z,27.78
2022-08-05T05:17:22.738Z,28.25
2022-08-05T05:19:53.275Z,28.37
2022-08-05T05:22:24.192Z,28.61
2022-08-05T05:24:59.532Z,28.96
2022-08-05T05:27:44.331Z,29.29
2022-08-05T05:30:29.508Z,29.72
2022-08-05T05:33:00.678Z,29.98
2022-08-05T05:35:34.233Z,30.16
2022-08-05T05:38:05.538Z,30.29
2022-08-05T05:40:32.616Z,30.48
2022-08-05T05:43:02.190Z,30.76
2022-08-05T05:45:28.734Z,31.04
2022-08-05T05:48:05.567Z,31.38
2022-08-05T05:50:41.235Z,31.65
2022-08-05T05:53:20.866Z,31.72
2022-08-05T05:55:52.097Z,32.00
2022-08-05T05:58:31.380Z,32.42
2022-08-05T06:01:12.829Z,32.95
2022-08-05T06:04:01.100Z,33.05
2022-08-05T06:06:31.378Z,33.10
2022-08-05T06:09:05.599Z,33.05
2022-08-05T06:11:34.976Z,33.35
2022-08-05T06:14:06.162Z,33.79
2022-08-05T06:16:37.365Z,33.87
2022-08-05T06:19:07.597Z,34.10
2022-08-05T06:21:37.378Z,34.35
2022-08-05T06:24:11.395Z,34.68
2022-08-05T06:26:51.759Z,35.06
2022-08-05T06:29:46.346Z,35.11
2022-08-05T06:32:25.585Z,35.53
2022-08-05T06:34:56.890Z,35.57
2022-08-05T06:37:57.796Z,35.70
2022-08-05T06:40:13.778Z,36.12
2022-08-05T06:42:40.921Z,36.36
2022-08-05T06:45:09.364Z,36.34
2022-08-05T06:48:12.488Z,36.63
2022-08-05T06:50:23.758Z,37.35
2022-08-05T06:53:03.515Z,36.97
2022-08-05T06:55:38.459Z,36.88
2022-08-05T06:58:20.367Z,37.65
2022-08-05T07:00:57.897Z,38.19
2022-08-05T07:03:32.496Z,37.33
2022-08-05T07:06:06.196Z,38.19
2022-08-05T07:08:42.787Z,37.74
2022-08-05T07:11:15.522Z,38.15
2022-08-05T07:14:02.015Z,38.66
2022-08-05T07:18:00.227Z,38.82
2022-08-05T07:22:27.618Z,39.14
2022-08-05T07:25:21.890Z,39.06
2022-08-05T07:28:08.393Z,39.39
2022-08-05T07:30:41.207Z,39.16
2022-08-05T07:33:16.074Z,38.98
2022-08-05T07:36:05.158Z,39.00
2022-08-05T07:38:35.665Z,38.49
2022-08-05T07:42:13.615Z,38.51
2022-08-05T07:44:18.512Z,37.04
2022-08-05T07:46:48.575Z,38.52
2022-08-05T07:49:18.257Z,38.16
2022-08-05T07:51:53.023Z,38.96
2022-08-05T07:54:31.579Z,39.12
2022-08-05T07:57:13.987Z,38.91
2022-08-05T07:59:53.685Z,39.11
2022-08-05T08:02:26.751Z,39.31
2022-08-05T08:04:58.506Z,39.26
2022-08-05T08:07:25.247Z,39.17
2022-08-05T08:09:55.284Z,38.26
2022-08-05T08:12:37.054Z,38.51
2022-08-05T08:15:09.393Z,38.75
2022-08-05T08:17:40.806Z,38.10
2022-08-05T08:20:42.795Z,37.69
2022-08-05T08:23:11.680Z,38.07
2022-08-05T08:26:00.179Z,37.25
2022-08-05T08:28:37.166Z,38.50
2022-08-05T08:31:09.813Z,38.51
2022-08-05T08:33:41.650Z,38.96
2022-08-05T08:38:55.990Z,38.95
2022-08-05T08:41:26.255Z,39.78
2022-08-05T08:45:19.194Z,40.39
2022-08-05T08:46:58.110Z,39.65
2022-08-05T08:50:13.183Z,39.36
2022-08-05T08:52:19.754Z,39.72
2022-08-05T08:54:47.964Z,40.32
2022-08-05T08:57:14.829Z,40.33
2022-08-05T08:59:56.166Z,39.84
2022-08-05T09:02:33.814Z,40.76
2022-08-05T09:05:17.643Z,39.75
2022-08-05T09:07:57.437Z,40.01
2022-08-05T09:10:26.988Z,39.29
2022-08-05T09:12:55.217Z,39.93
2022-08-05T09:15:22.847Z,40.38
2022-08-05T09:17:52.967Z,39.61
2022-08-05T09:20:36.285Z,40.16
2022-08-05T09:23:19.219Z,39.75
2022-08-05T09:26:01.103Z,41.17
2022-08-05T09:28:33.440Z,41.26
2022-08-05T09:31:43.824Z,41.48
2022-08-05T09:34:04.596Z,41.84
2022-08-05T09:36:56.101Z,42.29
2022-08-05T09:39:41.362Z,41.76
2022-08-05T09:42:24.437Z,41.61
2022-08-05T09:44:56.453Z,40.69
2022-08-05T09:47:34.928Z,41.31
2022-08-05T09:50:05.038Z,40.93
2022-08-05T09:52:36.252Z,40.55
2022-08-05T09:55:57.427Z,39.35
2022-08-05T09:57:59.779Z,38.79
2022-08-05T10:00:27.634Z,39.75
2022-08-05T10:02:58.662Z,40.08
2022-08-05T10:05:28.188Z,41.10
2022-08-05T10:08:35.203Z,41.58
2022-08-05T10:10:54.169Z,41.36
2022-08-05T10:13:45.779Z,41.01
2022-08-05T10:16:32.300Z,41.67
2022-08-05T10:19:01.776Z,40.25
2022-08-05T10:21:40.331Z,38.97
2022-08-05T10:24:13.453Z,39.74
2022-08-05T10:26:48.923Z,38.45
2022-08-05T10:29:24.199Z,38.30
2022-08-05T10:33:00.860Z,39.45
2022-08-05T10:34:55.361Z,39.76
2022-08-05T10:37:22.584Z,39.59
2022-08-05T10:39:59.047Z,39.45
2022-08-05T10:42:36.634Z,39.08
2022-08-05T10:45:21.419Z,39.41
2022-08-05T10:48:31.038Z,39.06
2022-08-05T10:51:00.181Z,39.31
2022-08-05T10:53:38.045Z,39.29
2022-08-05T10:56:21.103Z,38.61
2022-08-05T10:58:50.689Z,38.43
2022-08-05T11:01:28.057Z,38.20
2022-08-05T11:04:08.803Z,37.34
2022-08-05T11:07:00.372Z,36.57
2022-08-05T11:09:45.418Z,36.72
2022-08-05T11:12:37.295Z,37.68
2022-08-05T11:15:19.709Z,38.00
2022-08-05T11:18:25.977Z,38.08
2022-08-05T11:20:53.547Z,37.78
2022-08-05T11:24:04.528Z,37.18
2022-08-05T11:26:40.964Z,37.79
2022-08-05T11:29:42.665Z,37.44
2022-08-05T11:32:29.998Z,37.75
2022-08-05T11:34:57.538Z,37.67
2022-08-05T11:38:29.464Z,37.09
2022-08-05T11:41:35.104Z,37.48
2022-08-05T11:44:05.153Z,37.80
2022-08-05T11:46:35.716Z,38.29
2022-08-05T11:49:05.423Z,37.77
2022-08-05T11:51:44.776Z,37.80
2022-08-05T11:54:34.378Z,37.97
2022-08-05T11:57:08.661Z,38.21
2022-08-05T11:59:50.854Z,37.80
2022-08-05T12:02:30.366Z,37.50
2022-08-05T12:05:00.492Z,37.84
2022-08-05T12:08:07.584Z,38.00
2022-08-05T12:10:24.898Z,38.16
2022-08-05T12:13:15.633Z,38.19
2022-08-05T12:15:45.327Z,37.64
2022-08-05T12:18:32.342Z,38.18
2022-08-05T12:21:13.585Z,38.30
2022-08-05T12:24:14.062Z,37.40
2022-08-05T12:26:47.869Z,37.20
2022-08-05T12:29:23.526Z,37.75
2022-08-05T12:31:53.612Z,37.97
2022-08-05T12:34:24.035Z,37.43
2022-08-05T12:36:54.494Z,37.69
2022-08-05T12:39:23.702Z,37.72
2022-08-05T12:42:00.867Z,38.04
2022-08-05T12:44:33.469Z,38.24
2022-08-05T12:47:02.070Z,37.31
2022-08-05T12:50:03.284Z,37.70
2022-08-05T12:52:38.768Z,37.58
2022-08-05T12:55:44.201Z,37.27
2022-08-05T12:58:49.662Z,36.98
2022-08-05T13:02:03.553Z,37.41
2022-08-05T13:03:56.949Z,37.67
2022-08-05T13:06:26.099Z,37.95
2022-08-05T13:08:52.978Z,37.54
2022-08-05T13:11:59.676Z,37.72
2022-08-05T13:14:24.909Z,37.60
2022-08-05T13:17:03.011Z,37.29
2022-08-05T13:19:51.590Z,37.60
2022-08-05T13:22:29.287Z,38.00
2022-08-05T13:25:05.130Z,38.21
2022-08-05T13:27:40.133Z,38.31
2022-08-05T13:30:33.955Z,38.17
2022-08-05T13:33:01.701Z,38.13
2022-08-05T13:35:43.269Z,37.64
2022-08-05T13:38:28.260Z,37.78
2022-08-05T13:40:58.584Z,38.11
2022-08-05T13:43:44.495Z,38.14
2022-08-05T13:46:12.230Z,38.25
2022-08-05T13:48:57.908Z,37.80
2022-08-05T13:51:29.785Z,38.19
2022-08-05T13:54:12.772Z,38.23
2022-08-05T13:56:39.903Z,37.76
2022-08-05T13:59:19.692Z,37.71
2022-08-05T14:01:58.414Z,37.29
2022-08-05T14:04:49.954Z,37.41
2022-08-05T14:07:26.537Z,37.39
2022-08-05T14:10:19.107Z,37.63
2022-08-05T14:12:55.046Z,37.31
2022-08-05T14:16:09.325Z,37.20
2022-08-05T14:18:15.162Z,36.90
2022-08-05T14:20:48.950Z,37.32
2022-08-05T14:23:24.979Z,37.48
2022-08-05T14:25:58.896Z,37.72
2022-08-05T14:28:28.386Z,37.20
2022-08-05T14:30:56.103Z,37.21
2022-08-05T14:33:23.886Z,37.13
2022-08-05T14:35:51.732Z,37.10
2022-08-05T14:38:32.063Z,37.14
2022-08-05T14:41:05.827Z,37.38
2022-08-05T14:44:00.053Z,37.51
2022-08-05T14:46:20.163Z,37.18
2022-08-05T14:48:49.947Z,37.33
2022-08-05T14:51:17.806Z,37.50
2022-08-05T14:53:45.447Z,37.63
2022-08-05T14:56:31.969Z,37.62
2022-08-05T14:58:58.551Z,36.92
2022-08-05T15:01:48.702Z,37.14
2022-08-05T15:04:12.316Z,37.37
2022-08-05T15:06:40.391Z,37.52
2022-08-05T15:09:08.548Z,37.70
2022-08-05T15:11:50.978Z,37.65
2022-08-05T15:14:34.426Z,37.69
2022-08-05T15:17:05.114Z,37.64
2022-08-05T15:19:36.678Z,37.71
2022-08-05T15:22:05.939Z,37.78
2022-08-05T15:24:32.726Z,37.77
2022-08-05T15:26:59.262Z,37.80
2022-08-05T15:29:30.149Z,37.80
2022-08-05T15:31:57.738Z,37.80
2022-08-05T15:34:32.281Z,37.85
2022-08-05T15:37:04.895Z,37.77
2022-08-05T15:41:01.804Z,37.73
2022-08-05T15:42:54.165Z,37.76
2022-08-05T15:45:07.849Z,37.61
2022-08-05T15:47:36.609Z,37.63
2022-08-05T15:50:04.225Z,37.54
2022-08-05T15:52:53.676Z,37.22
2022-08-05T15:55:24.973Z,37.26
2022-08-05T15:58:07.324Z,36.87
2022-08-05T16:01:04.055Z,36.74
2022-08-05T16:03:20.985Z,36.85
2022-08-05T16:05:52.458Z,36.99
2022-08-05T16:08:19.432Z,36.91
2022-08-05T16:10:46.082Z,36.82
2022-08-05T16:13:23.608Z,36.70
2022-08-05T16:15:51.886Z,36.77
2022-08-05T16:18:19.146Z,36.76
2022-08-05T16:20:46.343Z,36.86
2022-08-05T16:23:12.933Z,36.81
2022-08-05T16:25:40.076Z,36.64
2022-08-05T16:28:09.666Z,36.57
2022-08-05T16:30:37.159Z,36.71
2022-08-05T16:33:03.992Z,36.69
2022-08-05T16:35:32.560Z,36.68
2022-08-05T16:38:15.414Z,36.70
2022-08-05T16:40:47.665Z,36.71
2022-08-05T16:43:19.202Z,36.73
2022-08-05T16:46:07.518Z,36.74
2022-08-05T16:48:35.346Z,36.77
2022-08-05T16:51:02.317Z,36.78
2022-08-05T16:54:05.025Z,36.72
2022-08-05T16:56:24.032Z,36.68
2022-08-05T16:58:51.321Z,36.61
2022-08-05T17:01:18.755Z,36.61
2022-08-05T17:03:46.093Z,36.52
2022-08-05T17:06:13.450Z,36.48
2022-08-05T17:08:53.405Z,36.44
2022-08-05T17:11:25.414Z,36.42
2022-08-05T17:14:05.427Z,36.36
2022-08-05T17:16:36.829Z,36.32
2022-08-05T17:19:07.330Z,36.25
2022-08-05T17:21:37.080Z,36.22
2022-08-05T17:24:19.310Z,36.14
2022-08-05T17:26:58.678Z,36.08
2022-08-05T17:29:33.632Z,36.08
2022-08-05T17:32:11.178Z,36.02
2022-08-05T17:34:39.093Z,36.01
2022-08-05T17:37:35.962Z,35.93
2022-08-05T17:39:55.855Z,35.91
2022-08-05T17:42:25.831Z,35.82
2022-08-05T17:44:56.627Z,35.81
2022-08-05T17:47:23.746Z,35.77
2022-08-05T17:50:00.350Z,35.70
2022-08-05T17:52:34.225Z,35.62
2022-08-05T17:55:01.274Z,35.57
2022-08-05T17:57:30.026Z,35.46
2022-08-05T18:00:04.761Z,35.38
2022-08-05T18:02:34.228Z,35.22
2022-08-05T18:05:06.400Z,35.14
2022-08-05T18:07:41.470Z,35.10
2022-08-05T18:10:11.006Z,34.98
2022-08-05T18:12:38.311Z,34.99
2022-08-05T18:15:05.974Z,34.89
2022-08-05T18:18:01.118Z,34.84
2022-08-05T18:20:29.602Z,34.76
2022-08-05T18:23:00.562Z,34.73
2022-08-05T18:25:35.874Z,34.59
2022-08-05T18:28:04.759Z,34.59
2022-08-05T18:30:33.104Z,34.48
2022-08-05T18:33:01.129Z,34.44
2022-08-05T18:36:00.795Z,34.39
2022-08-05T18:38:19.370Z,34.32
2022-08-05T18:41:57.225Z,34.23
2022-08-05T18:43:42.816Z,34.15
2022-08-05T18:46:15.120Z,33.99
2022-08-05T18:48:42.164Z,33.87
2022-08-05T18:52:03.271Z,33.72
2022-08-05T18:54:14.582Z,33.52
2022-08-05T18:56:41.895Z,33.34
2022-08-05T18:59:42.908Z,32.99
2022-08-05T19:02:04.961Z,32.81
2022-08-05T19:05:03.030Z,32.73
2022-08-05T19:07:45.916Z,32.58
2022-08-05T19:10:13.245Z,32.43
2022-08-05T19:12:40.375Z,32.33
2022-08-05T19:15:45.079Z,32.28
2022-08-05T19:17:59.103Z,32.13
2022-08-05T19:20:36.758Z,32.08
2022-08-05T19:23:03.333Z,32.04
2022-08-05T19:25:41.949Z,32.04
2022-08-05T19:28:10.485Z,31.94
2022-08-05T19:30:37.034Z,31.90
2022-08-05T19:33:05.066Z,31.90
2022-08-05T19:35:52.212Z,31.88
2022-08-05T19:38:26.498Z,31.80
2022-08-05T19:40:53.615Z,31.72
2022-08-05T19:44:04.505Z,31.71
2022-08-05T19:46:06.731Z,31.69
2022-08-05T19:48:53.270Z,31.68
2022-08-05T19:51:56.591Z,31.66
2022-08-05T19:54:26.635Z,31.63
2022-08-05T19:56:55.245Z,31.55
2022-08-05T19:59:54.586Z,31.50
2022-08-05T20:02:08.456Z,31.46
2022-08-05T20:04:35.178Z,31.31
2022-08-05T20:07:02.710Z,31.14
2022-08-05T20:09:29.456Z,31.17
2022-08-05T20:12:16.036Z,31.17
2022-08-05T20:14:45.553Z,31.17
2022-08-05T20:17:18.689Z,31.17
2022-08-05T20:19:45.244Z,31.08
2022-08-05T20:22:11.903Z,31.05
2022-08-05T20:24:38.468Z,31.00
2022-08-05T20:27:11.248Z,30.94
2022-08-05T20:29:38.360Z,30.89
2022-08-05T20:32:06.453Z,30.82
2022-08-05T20:34:33.101Z,30.77
2022-08-05T20:37:00.781Z,30.73
2022-08-05T20:39:35.563Z,30.72
2022-08-05T20:42:04.955Z,30.68
2022-08-05T20:44:33.081Z,30.60
2022-08-05T20:47:07.517Z,30.46
2022-08-05T20:49:39.450Z,30.31
2022-08-05T20:52:07.048Z,30.19
2022-08-05T20:54:59.805Z,30.02
2022-08-05T20:57:24.650Z,30.06
2022-08-05T21:00:19.891Z,30.07
2022-08-05T21:03:00.062Z,30.11
2022-08-05T21:05:28.565Z,30.10
2022-08-05T21:08:15.033Z,30.04
2022-08-05T21:10:48.715Z,29.87
2022-08-05T21:13:36.744Z,29.81
2022-08-05T21:16:03.693Z,29.75
2022-08-05T21:18:30.539Z,29.72
2022-08-05T21:20:57.422Z,29.69
2022-08-05T21:23:24.720Z,29.72
2022-08-05T21:25:51.690Z,29.78
2022-08-05T21:28:23.741Z,29.85
2022-08-05T21:30:50.692Z,29.83
2022-08-05T21:33:22.589Z,29.81
2022-08-05T21:35:55.984Z,29.76
2022-08-05T21:38:26.484Z,29.69
2022-08-05T21:40:53.056Z,29.65
2022-08-05T21:43:24.778Z,29.56
2022-08-05T21:45:56.834Z,29.43
2022-08-05T21:48:24.426Z,29.24
2022-08-05T21:50:53.189Z,29.03
2022-08-05T21:53:21.509Z,29.01
2022-08-05T21:56:06.022Z,29.00
2022-08-05T21:58:42.408Z,29.01
2022-08-05T22:01:23.959Z,29.04
2022-08-05T22:03:53.079Z,29.13
2022-08-05T22:06:22.866Z,29.16
2022-08-05T22:09:01.616Z,28.97
2022-08-05T22:11:40.140Z,28.53
2022-08-05T22:14:35.236Z,28.28
2022-08-05T22:16:56.073Z,28.04
2022-08-05T22:20:01.193Z,27.96
2022-08-05T22:22:11.558Z,27.95
2022-08-05T22:24:57.319Z,27.76
2022-08-05T22:28:04.907Z,27.66
2022-08-05T22:30:32.444Z,27.47
2022-08-05T22:33:02.470Z,27.32
2022-08-05T22:35:30.995Z,27.23
2022-08-05T22:38:17.233Z,27.25
2022-08-05T22:40:49.414Z,27.57
2022-08-05T22:43:36.974Z,27.71
2022-08-05T22:46:09.056Z,27.85
2022-08-05T22:48:40.084Z,27.88
2022-08-05T22:53:58.028Z,27.96
2022-08-05T22:56:30.140Z,27.92
2022-08-05T22:58:58.160Z,27.99
2022-08-05T23:02:04.662Z,28.07
2022-08-05T23:04:13.587Z,28.00
2022-08-05T23:06:41.049Z,27.80
2022-08-05T23:09:27.741Z,27.82
2022-08-05T23:11:55.605Z,27.82
2022-08-05T23:14:31.971Z,27.69
2022-08-05T23:17:18.605Z,27.59
2022-08-05T23:19:59.047Z,27.55
2022-08-05T23:22:27.281Z,27.51
2022-08-05T23:24:55.265Z,27.51
2022-08-05T23:27:22.758Z,27.42
2022-08-05T23:29:50.761Z,27.39
2022-08-05T23:32:17.572Z,27.35
2022-08-05T23:34:49.757Z,27.34
2022-08-05T23:37:17.757Z,27.33
2022-08-05T23:39:53.825Z,27.33
2022-08-05T23:42:23.450Z,27.31
2022-08-05T23:44:56.435Z,27.17
2022-08-05T23:47:25.067Z,27.11
2022-08-05T23:49:55.502Z,26.98
2022-08-05T23:52:35.983Z,26.79
2022-08-05T23:55:09.913Z,26.72
2022-08-05T23:57:37.618Z,26.79
